sensor_id;sensor_type;location;lat;lon;timestamp;pressure;altitude;pressure_sealevel;temperature;humidity
56456;BME280;42354;53.218;6.564;2022-12-29T00:01:09;47254.06;;;-142.92;92.86
56456;BME280;42354;53.218;6.564;2022-12-29T00:03:34;47256.13;;;-142.92;93.02
56456;BME280;42354;53.218;6.564;2022-12-29T00:06:00;47258.16;;;-142.92;93.12
56456;BME280;42354;53.218;6.564;2022-12-29T00:08:26;47252.00;;;-142.92;93.45
56456;BME280;42354;53.218;6.564;2022-12-29T00:11:11;47241.75;;;-142.92;93.69
56456;BME280;42354;53.218;6.564;2022-12-29T00:13:37;47241.75;;;-142.92;94.23
56456;BME280;42354;53.218;6.564;2022-12-29T00:16:21;47237.66;;;-142.92;94.42
56456;BME280;42354;53.218;6.564;2022-12-29T00:18:47;47237.66;;;-142.92;94.76
56456;BME280;42354;53.218;6.564;2022-12-29T00:21:20;47247.91;;;-142.92;94.86
56456;BME280;42354;53.218;6.564;2022-12-29T00:24:06;47239.69;;;-142.92;94.96
56456;BME280;42354;53.218;6.564;2022-12-29T00:26:56;47243.81;;;-142.92;94.79
56456;BME280;42354;53.218;6.564;2022-12-29T00:29:41;47247.91;;;-142.92;95.14
56456;BME280;42354;53.218;6.564;2022-12-29T00:32:25;47245.84;;;-142.92;95.04
56456;BME280;42354;53.218;6.564;2022-12-29T00:35:11;47241.75;;;-142.92;94.87
56456;BME280;42354;53.218;6.564;2022-12-29T00:37:41;47241.75;;;-142.92;95.09
56456;BME280;42354;53.218;6.564;2022-12-29T00:40:26;47239.69;;;-142.92;95.06
56456;BME280;42354;53.218;6.564;2022-12-29T00:43:10;47241.75;;;-142.92;94.96
56456;BME280;42354;53.218;6.564;2022-12-29T00:45:54;47237.66;;;-142.92;94.87
56456;BME280;42354;53.218;6.564;2022-12-29T00:48:19;47245.84;;;-142.92;94.97
56456;BME280;42354;53.218;6.564;2022-12-29T00:51:05;47233.53;;;-142.92;94.73
56456;BME280;42354;53.218;6.564;2022-12-29T00:53:31;47239.69;;;-142.92;94.58
56456;BME280;42354;53.218;6.564;2022-12-29T00:55:56;47245.84;;;-142.92;94.35
56456;BME280;42354;53.218;6.564;2022-12-29T00:58:22;47243.81;;;-142.92;94.06
56456;BME280;42354;53.218;6.564;2022-12-29T01:00:47;47245.84;;;-142.92;93.88
56456;BME280;42354;53.218;6.564;2022-12-29T01:03:12;47256.13;;;-142.92;93.64
56456;BME280;42354;53.218;6.564;2022-12-29T01:05:38;47258.16;;;-142.92;93.32
56456;BME280;42354;53.218;6.564;2022-12-29T01:08:03;47252.00;;;-142.92;93.25
56456;BME280;42354;53.218;6.564;2022-12-29T01:10:29;47254.06;;;-142.92;93.21
56456;BME280;42354;53.218;6.564;2022-12-29T01:12:54;47256.13;;;-142.92;93.01
56456;BME280;42354;53.218;6.564;2022-12-29T01:15:20;47241.75;;;-142.92;92.95
56456;BME280;42354;53.218;6.564;2022-12-29T01:17:45;47252.00;;;-142.92;92.48
56456;BME280;42354;53.218;6.564;2022-12-29T01:20:12;47258.16;;;-142.92;92.53
56456;BME280;42354;53.218;6.564;2022-12-29T01:22:39;47249.97;;;-142.92;92.43
56456;BME280;42354;53.218;6.564;2022-12-29T01:25:05;47266.38;;;-142.92;92.35
56456;BME280;42354;53.218;6.564;2022-12-29T01:27:30;47258.16;;;-142.92;92.47
56456;BME280;42354;53.218;6.564;2022-12-29T01:29:56;47258.16;;;-142.92;92.65
56456;BME280;42354;53.218;6.564;2022-12-29T01:32:21;47258.16;;;-142.92;92.41
56456;BME280;42354;53.218;6.564;2022-12-29T01:34:47;47254.06;;;-142.92;92.45
56456;BME280;42354;53.218;6.564;2022-12-29T01:37:13;47254.06;;;-142.92;92.24
56456;BME280;42354;53.218;6.564;2022-12-29T01:39:38;47264.31;;;-142.92;92.33
56456;BME280;42354;53.218;6.564;2022-12-29T01:42:03;47249.97;;;-142.92;92.34
56456;BME280;42354;53.218;6.564;2022-12-29T01:44:47;47254.06;;;-142.92;92.47
56456;BME280;42354;53.218;6.564;2022-12-29T01:47:25;47256.13;;;-142.92;92.69
56456;BME280;42354;53.218;6.564;2022-12-29T01:49:54;47256.13;;;-142.92;92.83
56456;BME280;42354;53.218;6.564;2022-12-29T01:52:24;47254.06;;;-142.92;93.09
56456;BME280;42354;53.218;6.564;2022-12-29T01:54:52;47249.97;;;-142.92;93.32
56456;BME280;42354;53.218;6.564;2022-12-29T01:57:27;47254.06;;;-142.92;93.63
56456;BME280;42354;53.218;6.564;2022-12-29T02:00:00;47254.06;;;-142.92;93.69
56456;BME280;42354;53.218;6.564;2022-12-29T02:02:26;47241.75;;;-142.92;94.46
56456;BME280;42354;53.218;6.564;2022-12-29T02:04:55;47241.75;;;-142.92;94.53
56456;BME280;42354;53.218;6.564;2022-12-29T02:07:24;47239.69;;;-142.92;94.67
56456;BME280;42354;53.218;6.564;2022-12-29T02:09:51;47243.81;;;-142.92;94.80
56456;BME280;42354;53.218;6.564;2022-12-29T02:12:19;47247.91;;;-142.92;95.14
56456;BME280;42354;53.218;6.564;2022-12-29T02:14:45;47237.66;;;-142.92;95.23
56456;BME280;42354;53.218;6.564;2022-12-29T02:22:54;47245.84;;;-142.92;94.88
56456;BME280;42354;53.218;6.564;2022-12-29T02:30:42;47254.06;;;-142.92;93.64
56456;BME280;42354;53.218;6.564;2022-12-29T02:41:34;47264.31;;;-142.92;92.40
56456;BME280;42354;53.218;6.564;2022-12-29T02:49:34;47266.38;;;-142.92;92.14
56456;BME280;42354;53.218;6.564;2022-12-29T02:52:06;47262.28;;;-142.92;92.10
56456;BME280;42354;53.218;6.564;2022-12-29T02:54:32;47258.16;;;-142.92;92.07
56456;BME280;42354;53.218;6.564;2022-12-29T02:57:26;47266.38;;;-142.92;91.77
56456;BME280;42354;53.218;6.564;2022-12-29T02:59:57;47254.06;;;-142.92;92.04
56456;BME280;42354;53.218;6.564;2022-12-29T03:11:05;47254.06;;;-142.92;91.94
56456;BME280;42354;53.218;6.564;2022-12-29T03:13:55;47260.22;;;-142.92;92.06
56456;BME280;42354;53.218;6.564;2022-12-29T03:16:45;47252.00;;;-142.92;91.85
56456;BME280;42354;53.218;6.564;2022-12-29T03:19:22;47260.22;;;-142.92;91.76
56456;BME280;42354;53.218;6.564;2022-12-29T03:21:55;47266.38;;;-142.92;91.65
56456;BME280;42354;53.218;6.564;2022-12-29T03:24:47;47260.22;;;-142.92;91.89
56456;BME280;42354;53.218;6.564;2022-12-29T03:27:19;47256.13;;;-142.92;91.92
56456;BME280;42354;53.218;6.564;2022-12-29T03:29:47;47245.84;;;-142.92;91.55
56456;BME280;42354;53.218;6.564;2022-12-29T03:32:19;47258.16;;;-142.92;91.25
56456;BME280;42354;53.218;6.564;2022-12-29T03:34:46;47252.00;;;-142.92;91.08
56456;BME280;42354;53.218;6.564;2022-12-29T03:37:14;47208.91;;;-142.92;90.19
56456;BME280;42354;53.218;6.564;2022-12-29T03:39:42;47161.72;;;-142.92;89.50
56456;BME280;42354;53.218;6.564;2022-12-29T03:42:13;47085.78;;;-142.92;88.49
56456;BME280;42354;53.218;6.564;2022-12-29T03:44:42;46749.25;;;-142.92;87.32
56456;BME280;42354;53.218;6.564;2022-12-29T03:47:10;46997.53;;;-142.92;86.89
56456;BME280;42354;53.218;6.564;2022-12-29T03:49:36;46999.59;;;-142.92;87.05
56456;BME280;42354;53.218;6.564;2022-12-29T03:52:01;46979.06;;;-142.92;86.92
56456;BME280;42354;53.218;6.564;2022-12-29T03:54:27;46942.13;;;-142.92;87.23
56456;BME280;42354;53.218;6.564;2022-12-29T03:56:52;46935.97;;;-142.92;87.19
56456;BME280;42354;53.218;6.564;2022-12-29T03:59:17;46927.78;;;-142.92;87.30
56456;BME280;42354;53.218;6.564;2022-12-29T04:01:43;46868.28;;;-142.92;87.48
56456;BME280;42354;53.218;6.564;2022-12-29T04:04:08;46812.88;;;-142.92;87.42
56456;BME280;42354;53.218;6.564;2022-12-29T04:06:34;46792.34;;;-142.92;87.69
56456;BME280;42354;53.218;6.564;2022-12-29T04:08:59;46802.59;;;-142.92;87.50
56456;BME280;42354;53.218;6.564;2022-12-29T04:11:25;46794.41;;;-142.92;87.40
56456;BME280;42354;53.218;6.564;2022-12-29T04:13:50;46794.41;;;-142.92;87.34
56456;BME280;42354;53.218;6.564;2022-12-29T04:16:15;46882.63;;;-142.92;87.19
56456;BME280;42354;53.218;6.564;2022-12-29T04:18:41;46831.34;;;-142.92;87.34
56456;BME280;42354;53.218;6.564;2022-12-29T04:21:06;46968.81;;;-142.92;86.63
56456;BME280;42354;53.218;6.564;2022-12-29T04:23:34;46985.22;;;-142.92;86.39
56456;BME280;42354;53.218;6.564;2022-12-29T04:26:00;46993.44;;;-142.92;86.13
56456;BME280;42354;53.218;6.564;2022-12-29T04:28:26;46989.34;;;-142.92;85.60
56456;BME280;42354;53.218;6.564;2022-12-29T04:30:52;47013.97;;;-142.92;85.29
56456;BME280;42354;53.218;6.564;2022-12-29T04:33:18;47003.69;;;-142.92;84.70
56456;BME280;42354;53.218;6.564;2022-12-29T04:35:43;47005.75;;;-142.92;84.02
56456;BME280;42354;53.218;6.564;2022-12-29T04:38:09;47011.91;;;-142.92;82.96
56456;BME280;42354;53.218;6.564;2022-12-29T04:40:35;47038.59;;;-142.92;81.94
56456;BME280;42354;53.218;6.564;2022-12-29T04:43:02;47009.84;;;-142.92;81.57
56456;BME280;42354;53.218;6.564;2022-12-29T04:45:27;47028.31;;;-142.92;81.16
56456;BME280;42354;53.218;6.564;2022-12-29T04:47:53;47018.06;;;-142.92;80.41
56456;BME280;42354;53.218;6.564;2022-12-29T04:50:19;47018.06;;;-142.92;80.28
56456;BME280;42354;53.218;6.564;2022-12-29T04:52:45;47020.13;;;-142.92;80.41
56456;BME280;42354;53.218;6.564;2022-12-29T04:55:10;47011.91;;;-142.92;80.54
56456;BME280;42354;53.218;6.564;2022-12-29T04:57:35;47003.69;;;-142.92;80.74
56456;BME280;42354;53.218;6.564;2022-12-29T05:00:01;47007.81;;;-142.92;80.14
56456;BME280;42354;53.218;6.564;2022-12-29T05:02:26;46997.53;;;-142.92;80.52
56456;BME280;42354;53.218;6.564;2022-12-29T05:04:52;47036.53;;;-142.92;80.52
56456;BME280;42354;53.218;6.564;2022-12-29T05:07:17;47016.00;;;-142.92;80.77
56456;BME280;42354;53.218;6.564;2022-12-29T05:09:42;47007.81;;;-142.92;80.99
56456;BME280;42354;53.218;6.564;2022-12-29T05:12:08;47018.06;;;-142.92;81.36
56456;BME280;42354;53.218;6.564;2022-12-29T05:14:33;47022.16;;;-142.92;80.58
56456;BME280;42354;53.218;6.564;2022-12-29T05:16:58;47016.00;;;-142.92;80.53
56456;BME280;42354;53.218;6.564;2022-12-29T05:19:24;47020.13;;;-142.92;80.68
56456;BME280;42354;53.218;6.564;2022-12-29T05:21:49;47013.97;;;-142.92;80.66
56456;BME280;42354;53.218;6.564;2022-12-29T05:24:15;47005.75;;;-142.92;81.08
56456;BME280;42354;53.218;6.564;2022-12-29T05:26:41;47013.97;;;-142.92;81.25
56456;BME280;42354;53.218;6.564;2022-12-29T05:29:07;46983.19;;;-142.92;81.18
56456;BME280;42354;53.218;6.564;2022-12-29T05:31:32;47007.81;;;-142.92;81.30
56456;BME280;42354;53.218;6.564;2022-12-29T05:33:58;47005.75;;;-142.92;81.67
56456;BME280;42354;53.218;6.564;2022-12-29T05:36:23;46987.28;;;-142.92;81.59
56456;BME280;42354;53.218;6.564;2022-12-29T05:38:49;47024.22;;;-142.92;81.52
56456;BME280;42354;53.218;6.564;2022-12-29T05:41:14;47028.31;;;-142.92;81.68
56456;BME280;42354;53.218;6.564;2022-12-29T05:43:40;47016.00;;;-142.92;81.78
56456;BME280;42354;53.218;6.564;2022-12-29T05:46:05;47005.75;;;-142.92;81.80
56456;BME280;42354;53.218;6.564;2022-12-29T05:48:30;47009.84;;;-142.92;81.90
56456;BME280;42354;53.218;6.564;2022-12-29T05:50:56;47020.13;;;-142.92;82.12
56456;BME280;42354;53.218;6.564;2022-12-29T05:53:21;46995.50;;;-142.92;82.14
56456;BME280;42354;53.218;6.564;2022-12-29T05:55:47;47020.13;;;-142.92;82.09
56456;BME280;42354;53.218;6.564;2022-12-29T05:58:13;47030.38;;;-142.92;82.20
56456;BME280;42354;53.218;6.564;2022-12-29T06:00:39;47001.66;;;-142.92;81.93
56456;BME280;42354;53.218;6.564;2022-12-29T06:03:05;47018.06;;;-142.92;81.73
56456;BME280;42354;53.218;6.564;2022-12-29T06:05:30;47013.97;;;-142.92;81.75
56456;BME280;42354;53.218;6.564;2022-12-29T06:07:55;47013.97;;;-142.92;82.01
56456;BME280;42354;53.218;6.564;2022-12-29T06:10:20;47013.97;;;-142.92;81.92
56456;BME280;42354;53.218;6.564;2022-12-29T06:12:46;47022.16;;;-142.92;82.03
56456;BME280;42354;53.218;6.564;2022-12-29T06:15:12;47022.16;;;-142.92;81.77
56456;BME280;42354;53.218;6.564;2022-12-29T06:17:37;47024.22;;;-142.92;81.73
56456;BME280;42354;53.218;6.564;2022-12-29T06:20:03;47009.84;;;-142.92;81.72
56456;BME280;42354;53.218;6.564;2022-12-29T06:22:28;46995.50;;;-142.92;81.41
56456;BME280;42354;53.218;6.564;2022-12-29T06:24:54;47005.75;;;-142.92;81.19
56456;BME280;42354;53.218;6.564;2022-12-29T06:27:19;47009.84;;;-142.92;81.13
56456;BME280;42354;53.218;6.564;2022-12-29T06:29:44;47005.75;;;-142.92;80.76
56456;BME280;42354;53.218;6.564;2022-12-29T06:32:10;47007.81;;;-142.92;80.56
56456;BME280;42354;53.218;6.564;2022-12-29T06:34:35;47005.75;;;-142.92;80.38
56456;BME280;42354;53.218;6.564;2022-12-29T06:37:01;47007.81;;;-142.92;80.23
56456;BME280;42354;53.218;6.564;2022-12-29T06:39:26;46995.50;;;-142.92;79.87
56456;BME280;42354;53.218;6.564;2022-12-29T06:41:55;46999.59;;;-142.92;79.37
56456;BME280;42354;53.218;6.564;2022-12-29T06:44:21;47020.13;;;-142.92;79.21
56456;BME280;42354;53.218;6.564;2022-12-29T06:46:47;47016.00;;;-142.92;79.55
56456;BME280;42354;53.218;6.564;2022-12-29T06:49:12;47007.81;;;-142.92;79.34
56456;BME280;42354;53.218;6.564;2022-12-29T06:51:38;47011.91;;;-142.92;79.13
56456;BME280;42354;53.218;6.564;2022-12-29T06:54:03;47030.38;;;-142.92;79.11
56456;BME280;42354;53.218;6.564;2022-12-29T06:56:28;47036.53;;;-142.92;78.79
56456;BME280;42354;53.218;6.564;2022-12-29T06:58:54;46991.38;;;-142.92;78.52
56456;BME280;42354;53.218;6.564;2022-12-29T07:01:19;47020.13;;;-142.92;78.19
56456;BME280;42354;53.218;6.564;2022-12-29T07:03:44;47024.22;;;-142.92;77.81
56456;BME280;42354;53.218;6.564;2022-12-29T07:06:10;47028.31;;;-142.92;77.89
56456;BME280;42354;53.218;6.564;2022-12-29T07:08:35;47013.97;;;-142.92;77.65
56456;BME280;42354;53.218;6.564;2022-12-29T07:11:00;47024.22;;;-142.92;77.54
56456;BME280;42354;53.218;6.564;2022-12-29T07:13:26;47003.69;;;-142.92;77.66
56456;BME280;42354;53.218;6.564;2022-12-29T07:15:51;47024.22;;;-142.92;77.77
56456;BME280;42354;53.218;6.564;2022-12-29T07:18:16;46997.53;;;-142.92;78.08
56456;BME280;42354;53.218;6.564;2022-12-29T07:20:42;47020.13;;;-142.92;78.42
56456;BME280;42354;53.218;6.564;2022-12-29T07:23:07;47011.91;;;-142.92;78.08
56456;BME280;42354;53.218;6.564;2022-12-29T07:25:32;47007.81;;;-142.92;78.21
56456;BME280;42354;53.218;6.564;2022-12-29T07:28:00;47011.91;;;-142.92;78.04
56456;BME280;42354;53.218;6.564;2022-12-29T07:30:25;46999.59;;;-142.92;77.76
56456;BME280;42354;53.218;6.564;2022-12-29T07:32:51;47005.75;;;-142.92;77.61
56456;BME280;42354;53.218;6.564;2022-12-29T07:35:16;47022.16;;;-142.92;77.55
56456;BME280;42354;53.218;6.564;2022-12-29T07:37:41;47011.91;;;-142.92;77.33
56456;BME280;42354;53.218;6.564;2022-12-29T07:40:08;47013.97;;;-142.92;77.08
56456;BME280;42354;53.218;6.564;2022-12-29T07:42:34;47001.66;;;-142.92;76.93
56456;BME280;42354;53.218;6.564;2022-12-29T07:44:59;46995.50;;;-142.92;77.01
56456;BME280;42354;53.218;6.564;2022-12-29T07:47:25;47026.28;;;-142.92;76.71
56456;BME280;42354;53.218;6.564;2022-12-29T07:49:50;46999.59;;;-142.92;76.68
56456;BME280;42354;53.218;6.564;2022-12-29T07:52:16;47007.81;;;-142.92;76.51
56456;BME280;42354;53.218;6.564;2022-12-29T07:54:41;47007.81;;;-142.92;76.44
56456;BME280;42354;53.218;6.564;2022-12-29T07:57:07;47028.31;;;-142.92;76.49
56456;BME280;42354;53.218;6.564;2022-12-29T07:59:32;47032.44;;;-142.92;76.82
56456;BME280;42354;53.218;6.564;2022-12-29T08:01:57;47018.06;;;-142.92;77.00
56456;BME280;42354;53.218;6.564;2022-12-29T08:04:23;47036.53;;;-142.92;77.28
56456;BME280;42354;53.218;6.564;2022-12-29T08:06:48;47011.91;;;-142.92;77.84
56456;BME280;42354;53.218;6.564;2022-12-29T08:09:13;47024.22;;;-142.92;78.33
56456;BME280;42354;53.218;6.564;2022-12-29T08:11:39;47026.28;;;-142.92;78.43
56456;BME280;42354;53.218;6.564;2022-12-29T08:14:05;47016.00;;;-142.92;78.55
56456;BME280;42354;53.218;6.564;2022-12-29T08:16:30;46991.38;;;-142.92;78.39
56456;BME280;42354;53.218;6.564;2022-12-29T08:18:56;47024.22;;;-142.92;78.05
56456;BME280;42354;53.218;6.564;2022-12-29T08:21:21;47007.81;;;-142.92;77.99
56456;BME280;42354;53.218;6.564;2022-12-29T08:23:47;47009.84;;;-142.92;77.57
56456;BME280;42354;53.218;6.564;2022-12-29T08:26:13;47009.84;;;-142.92;77.61
56456;BME280;42354;53.218;6.564;2022-12-29T08:28:38;47020.13;;;-142.92;77.00
56456;BME280;42354;53.218;6.564;2022-12-29T08:31:04;47001.66;;;-142.92;77.11
56456;BME280;42354;53.218;6.564;2022-12-29T08:33:30;47009.84;;;-142.92;76.72
56456;BME280;42354;53.218;6.564;2022-12-29T08:36:00;47018.06;;;-142.92;76.22
56456;BME280;42354;53.218;6.564;2022-12-29T08:38:27;47011.91;;;-142.92;76.30
56456;BME280;42354;53.218;6.564;2022-12-29T08:40:53;46995.50;;;-142.92;76.80
56456;BME280;42354;53.218;6.564;2022-12-29T08:43:18;47024.22;;;-142.92;77.45
56456;BME280;42354;53.218;6.564;2022-12-29T08:45:43;47024.22;;;-142.92;78.25
56456;BME280;42354;53.218;6.564;2022-12-29T08:48:10;47013.97;;;-142.92;78.95
56456;BME280;42354;53.218;6.564;2022-12-29T08:50:35;47026.28;;;-142.92;79.56
56456;BME280;42354;53.218;6.564;2022-12-29T08:53:01;46999.59;;;-142.92;80.19
56456;BME280;42354;53.218;6.564;2022-12-29T08:55:26;47020.13;;;-142.92;80.11
56456;BME280;42354;53.218;6.564;2022-12-29T08:57:51;47034.47;;;-142.92;80.19
56456;BME280;42354;53.218;6.564;2022-12-29T09:00:17;47018.06;;;-142.92;80.32
56456;BME280;42354;53.218;6.564;2022-12-29T09:02:43;47003.69;;;-142.92;80.37
56456;BME280;42354;53.218;6.564;2022-12-29T09:05:09;46999.59;;;-142.92;80.30
56456;BME280;42354;53.218;6.564;2022-12-29T09:07:35;47024.22;;;-142.92;80.29
56456;BME280;42354;53.218;6.564;2022-12-29T09:10:00;47022.16;;;-142.92;80.56
56456;BME280;42354;53.218;6.564;2022-12-29T09:12:26;47028.31;;;-142.92;80.57
56456;BME280;42354;53.218;6.564;2022-12-29T09:14:51;46991.38;;;-142.92;81.03
56456;BME280;42354;53.218;6.564;2022-12-29T09:17:16;47020.13;;;-142.92;81.05
56456;BME280;42354;53.218;6.564;2022-12-29T09:20:00;47018.06;;;-142.92;81.13
56456;BME280;42354;53.218;6.564;2022-12-29T09:22:26;47016.00;;;-142.92;80.92
56456;BME280;42354;53.218;6.564;2022-12-29T09:24:51;47007.81;;;-142.92;81.20
56456;BME280;42354;53.218;6.564;2022-12-29T09:27:16;47034.47;;;-142.92;81.06
56456;BME280;42354;53.218;6.564;2022-12-29T09:29:42;47022.16;;;-142.92;80.72
56456;BME280;42354;53.218;6.564;2022-12-29T09:32:07;47005.75;;;-142.92;80.87
56456;BME280;42354;53.218;6.564;2022-12-29T09:34:32;47036.53;;;-142.92;80.99
56456;BME280;42354;53.218;6.564;2022-12-29T09:36:58;46997.53;;;-142.92;80.92
56456;BME280;42354;53.218;6.564;2022-12-29T09:39:23;47005.75;;;-142.92;80.90
56456;BME280;42354;53.218;6.564;2022-12-29T09:42:08;47020.13;;;-142.92;80.79
56456;BME280;42354;53.218;6.564;2022-12-29T09:47:31;47016.00;;;-142.92;81.32
56456;BME280;42354;53.218;6.564;2022-12-29T09:50:24;47013.97;;;-142.92;81.75
56456;BME280;42354;53.218;6.564;2022-12-29T09:53:03;47007.81;;;-142.92;81.96
56456;BME280;42354;53.218;6.564;2022-12-29T09:55:39;47011.91;;;-142.92;81.60
56456;BME280;42354;53.218;6.564;2022-12-29T09:58:11;47034.47;;;-142.92;81.51
56456;BME280;42354;53.218;6.564;2022-12-29T10:03:15;47011.91;;;-142.92;81.25
56456;BME280;42354;53.218;6.564;2022-12-29T10:05:52;47016.00;;;-142.92;81.43
56456;BME280;42354;53.218;6.564;2022-12-29T10:08:40;47013.97;;;-142.92;81.94
56456;BME280;42354;53.218;6.564;2022-12-29T10:24:39;47018.06;;;-142.92;85.55
56456;BME280;42354;53.218;6.564;2022-12-29T10:27:10;47016.00;;;-142.92;85.91
56456;BME280;42354;53.218;6.564;2022-12-29T10:29:44;47009.84;;;-142.92;86.01
56456;BME280;42354;53.218;6.564;2022-12-29T10:32:34;47016.00;;;-142.92;86.31
56456;BME280;42354;53.218;6.564;2022-12-29T10:35:15;47011.91;;;-142.92;86.73
56456;BME280;42354;53.218;6.564;2022-12-29T10:40:22;47013.97;;;-142.92;87.45
56456;BME280;42354;53.218;6.564;2022-12-29T10:42:54;47016.00;;;-142.92;88.05
56456;BME280;42354;53.218;6.564;2022-12-29T10:45:21;47011.91;;;-142.92;88.42
56456;BME280;42354;53.218;6.564;2022-12-29T10:48:31;46983.19;;;-142.92;88.76
56456;BME280;42354;53.218;6.564;2022-12-29T10:50:50;47005.75;;;-142.92;88.41
56456;BME280;42354;53.218;6.564;2022-12-29T10:53:25;47016.00;;;-142.92;87.38
56456;BME280;42354;53.218;6.564;2022-12-29T10:55:53;47005.75;;;-142.92;86.32
56456;BME280;42354;53.218;6.564;2022-12-29T10:58:22;47003.69;;;-142.92;85.94
56456;BME280;42354;53.218;6.564;2022-12-29T11:00:52;47011.91;;;-142.92;85.82
56456;BME280;42354;53.218;6.564;2022-12-29T11:06:10;47024.22;;;-142.92;85.59
56456;BME280;42354;53.218;6.564;2022-12-29T11:08:49;47011.91;;;-142.92;85.18
56456;BME280;42354;53.218;6.564;2022-12-29T11:11:23;47016.00;;;-142.92;84.58
56456;BME280;42354;53.218;6.564;2022-12-29T11:13:56;47011.91;;;-142.92;84.42
56456;BME280;42354;53.218;6.564;2022-12-29T11:16:31;47028.31;;;-142.92;83.97
56456;BME280;42354;53.218;6.564;2022-12-29T11:18:56;47020.13;;;-142.92;84.18
56456;BME280;42354;53.218;6.564;2022-12-29T11:21:28;47013.97;;;-142.92;83.88
56456;BME280;42354;53.218;6.564;2022-12-29T11:24:14;47032.44;;;-142.92;82.46
56456;BME280;42354;53.218;6.564;2022-12-29T11:26:44;47009.84;;;-142.92;82.39
56456;BME280;42354;53.218;6.564;2022-12-29T11:31:48;47022.16;;;-142.92;81.41
56456;BME280;42354;53.218;6.564;2022-12-29T11:34:30;47007.81;;;-142.92;81.52
56456;BME280;42354;53.218;6.564;2022-12-29T11:37:00;47003.69;;;-142.92;82.12
56456;BME280;42354;53.218;6.564;2022-12-29T11:39:55;46999.59;;;-142.92;81.58
56456;BME280;42354;53.218;6.564;2022-12-29T11:42:32;47024.22;;;-142.92;81.16
56456;BME280;42354;53.218;6.564;2022-12-29T11:45:04;47032.44;;;-142.92;81.14
56456;BME280;42354;53.218;6.564;2022-12-29T11:47:32;47020.13;;;-142.92;81.12
56456;BME280;42354;53.218;6.564;2022-12-29T11:50:04;47018.06;;;-142.92;81.07
56456;BME280;42354;53.218;6.564;2022-12-29T11:52:34;47007.81;;;-142.92;80.46
56456;BME280;42354;53.218;6.564;2022-12-29T11:55:02;47024.22;;;-142.92;80.28
56456;BME280;42354;53.218;6.564;2022-12-29T11:57:28;47024.22;;;-142.92;80.47
56456;BME280;42354;53.218;6.564;2022-12-29T11:59:55;47013.97;;;-142.92;80.05
56456;BME280;42354;53.218;6.564;2022-12-29T12:02:45;47028.31;;;-142.92;80.17
56456;BME280;42354;53.218;6.564;2022-12-29T12:05:35;47003.69;;;-142.92;80.78
56456;BME280;42354;53.218;6.564;2022-12-29T12:08:14;47007.81;;;-142.92;81.64
56456;BME280;42354;53.218;6.564;2022-12-29T12:10:48;47032.44;;;-142.92;82.26
56456;BME280;42354;53.218;6.564;2022-12-29T12:13:35;47022.16;;;-142.92;82.23
56456;BME280;42354;53.218;6.564;2022-12-29T12:16:08;47028.31;;;-142.92;81.83
56456;BME280;42354;53.218;6.564;2022-12-29T12:18:53;47028.31;;;-142.92;81.23
56456;BME280;42354;53.218;6.564;2022-12-29T12:21:27;47009.84;;;-142.92;81.19
56456;BME280;42354;53.218;6.564;2022-12-29T12:26:35;47016.00;;;-142.92;80.69
56456;BME280;42354;53.218;6.564;2022-12-29T12:29:14;47013.97;;;-142.92;79.60
56456;BME280;42354;53.218;6.564;2022-12-29T12:34:40;47020.13;;;-142.92;78.23
56456;BME280;42354;53.218;6.564;2022-12-29T12:48:08;47013.97;;;-142.92;76.71
56456;BME280;42354;53.218;6.564;2022-12-29T12:50:52;47026.28;;;-142.92;77.55
56456;BME280;42354;53.218;6.564;2022-12-29T12:53:44;47005.75;;;-142.92;77.57
56456;BME280;42354;53.218;6.564;2022-12-29T12:58:54;47001.66;;;-142.92;77.90
56456;BME280;42354;53.218;6.564;2022-12-29T13:01:51;47024.22;;;-142.92;76.71
56456;BME280;42354;53.218;6.564;2022-12-29T13:15:05;47028.31;;;-142.92;75.16
56456;BME280;42354;53.218;6.564;2022-12-29T13:20:20;47003.69;;;-142.92;74.51
56456;BME280;42354;53.218;6.564;2022-12-29T13:22:57;46997.53;;;-142.92;74.90
56456;BME280;42354;53.218;6.564;2022-12-29T13:25:41;46999.59;;;-142.92;74.34
56456;BME280;42354;53.218;6.564;2022-12-29T13:28:25;47022.16;;;-142.92;74.04
56456;BME280;42354;53.218;6.564;2022-12-29T13:31:07;47013.97;;;-142.92;74.21
56456;BME280;42354;53.218;6.564;2022-12-29T13:39:25;47009.84;;;-142.92;74.00
56456;BME280;42354;53.218;6.564;2022-12-29T13:41:54;47016.00;;;-142.92;73.85
56456;BME280;42354;53.218;6.564;2022-12-29T13:44:32;47013.97;;;-142.92;74.02
56456;BME280;42354;53.218;6.564;2022-12-29T13:47:01;47026.28;;;-142.92;74.14
56456;BME280;42354;53.218;6.564;2022-12-29T13:49:30;47016.00;;;-142.92;74.47
56456;BME280;42354;53.218;6.564;2022-12-29T13:52:04;47022.16;;;-142.92;74.72
56456;BME280;42354;53.218;6.564;2022-12-29T13:54:40;47009.84;;;-142.92;74.55
56456;BME280;42354;53.218;6.564;2022-12-29T13:57:24;47011.91;;;-142.92;74.49
56456;BME280;42354;53.218;6.564;2022-12-29T14:00:01;47022.16;;;-142.92;74.12
56456;BME280;42354;53.218;6.564;2022-12-29T14:05:04;47003.69;;;-142.92;73.91
56456;BME280;42354;53.218;6.564;2022-12-29T14:07:36;47020.13;;;-142.92;73.80
56456;BME280;42354;53.218;6.564;2022-12-29T14:10:03;47013.97;;;-142.92;73.66
56456;BME280;42354;53.218;6.564;2022-12-29T14:12:42;47011.91;;;-142.92;73.96
56456;BME280;42354;53.218;6.564;2022-12-29T14:15:21;47003.69;;;-142.92;73.71
56456;BME280;42354;53.218;6.564;2022-12-29T14:18:03;47024.22;;;-142.92;73.73
56456;BME280;42354;53.218;6.564;2022-12-29T14:20:30;47022.16;;;-142.92;73.98
56456;BME280;42354;53.218;6.564;2022-12-29T14:22:59;47026.28;;;-142.92;73.66
56456;BME280;42354;53.218;6.564;2022-12-29T14:28:25;47011.91;;;-142.92;73.74
56456;BME280;42354;53.218;6.564;2022-12-29T14:30:54;47005.75;;;-142.92;73.79
56456;BME280;42354;53.218;6.564;2022-12-29T14:33:24;47024.22;;;-142.92;73.90
56456;BME280;42354;53.218;6.564;2022-12-29T14:35:52;47003.69;;;-142.92;74.32
56456;BME280;42354;53.218;6.564;2022-12-29T14:38:24;47022.16;;;-142.92;74.32